Time;durP1;ratioP1;P1;durP2;ratioP2;P2;SDS_P1;SDS_P2;PMS_P1;PMS_P2;Temp;Humidity;BMP_temperature;BMP_pressure;BME280_temperature;BME280_humidity;BME280_pressure;Samples;Min_cycle;Max_cycle;Signal;HPM_P1;HPM_P2
2022/10/22 00:01:56;;;;;;;15.73;10.30;;;;;;;14.22;100.00;100316.84;4942686;29;20071;-81
2022/10/22 00:04:24;;;;;;;14.27;11.18;;;;;;;14.21;100.00;100336.34;4926900;29;20083;-82
2022/10/22 00:06:51;;;;;;;17.17;12.35;;;;;;;14.16;100.00;100337.53;4961237;28;20057;-82
2022/10/22 00:09:19;;;;;;;14.80;11.00;;;;;;;14.13;100.00;100331.63;4927458;29;20510;-82
2022/10/22 00:11:46;;;;;;;14.98;10.13;;;;;;;14.12;100.00;100329.97;4932927;28;20047;-80
2022/10/22 00:14:15;;;;;;;11.85;8.95;;;;;;;14.12;100.00;100322.03;4949972;28;20035;-82
2022/10/22 00:16:42;;;;;;;10.00;8.75;;;;;;;14.15;100.00;100333.22;4939666;28;20076;-83
2022/10/22 00:19:12;;;;;;;12.70;10.30;;;;;;;14.17;100.00;100327.78;4944302;29;20043;-83
2022/10/22 00:21:39;;;;;;;14.52;10.45;;;;;;;14.14;100.00;100336.00;4955790;28;20048;-81
2022/10/22 00:24:07;;;;;;;12.23;10.38;;;;;;;14.15;100.00;100335.03;4943296;29;20157;-82
2022/10/22 00:26:34;;;;;;;11.38;9.90;;;;;;;14.19;100.00;100337.31;4960133;28;20051;-83
2022/10/22 00:29:02;;;;;;;10.90;8.85;;;;;;;14.23;100.00;100331.75;4934680;29;20055;-81
2022/10/22 00:31:29;;;;;;;12.95;11.20;;;;;;;14.23;100.00;100316.75;4962321;28;20123;-81
2022/10/22 00:33:57;;;;;;;12.50;9.65;;;;;;;14.20;100.00;100309.03;4947764;28;20078;-81
2022/10/22 00:36:24;;;;;;;12.70;8.95;;;;;;;14.22;100.00;100314.19;4920078;29;20055;-82
2022/10/22 00:38:52;;;;;;;14.15;8.25;;;;;;;14.23;100.00;100308.78;4945234;29;20461;-81
2022/10/22 00:41:19;;;;;;;11.25;9.50;;;;;;;14.25;100.00;100313.97;4930314;29;20032;-81
2022/10/22 00:43:57;;;;;;;15.45;11.70;;;;;;;14.24;100.00;100305.19;4945793;28;20107;-80
2022/10/22 00:46:25;;;;;;;11.57;9.50;;;;;;;14.25;100.00;100308.66;4936278;29;20056;-82
2022/10/22 00:48:54;;;;;;;14.30;10.40;;;;;;;14.21;100.00;100297.47;4942815;28;20043;-83
2022/10/22 00:51:24;;;;;;;11.52;9.93;;;;;;;14.17;100.00;100296.88;4932851;29;20110;-82
2022/10/22 00:53:54;;;;;;;11.55;9.38;;;;;;;14.18;100.00;100303.00;4952085;28;20420;-81
2022/10/22 00:56:23;;;;;;;12.60;8.80;;;;;;;14.21;100.00;100307.22;4928396;29;20047;-81
2022/10/22 00:58:58;;;;;;;12.05;9.35;;;;;;;14.23;100.00;100311.44;4928143;28;20109;-81
2022/10/22 01:01:30;;;;;;;17.52;9.25;;;;;;;14.25;100.00;100329.84;4921541;29;20047;-80
2022/10/22 01:03:58;;;;;;;12.38;8.70;;;;;;;14.26;100.00;100323.56;4936217;28;20042;-82
2022/10/22 01:06:33;;;;;;;10.27;9.05;;;;;;;14.26;100.00;100328.88;4941977;29;20043;-82
2022/10/22 01:09:36;;;;;;;10.95;8.98;;;;;;;14.29;100.00;100336.59;4943627;28;20050;-81
2022/10/22 01:12:45;;;;;;;12.68;10.15;;;;;;;14.27;100.00;100341.97;4926017;29;20135;-81
2022/10/22 01:15:52;;;;;;;18.63;11.10;;;;;;;14.21;100.00;100329.25;4951790;28;20127;-81
2022/10/22 01:18:31;;;;;;;15.60;9.75;;;;;;;14.20;100.00;100340.78;4946039;28;20023;-80
2022/10/22 01:21:17;;;;;;;15.90;12.85;;;;;;;14.14;100.00;100344.78;4933019;28;20114;-82
2022/10/22 01:24:10;;;;;;;18.00;12.45;;;;;;;14.07;100.00;100338.25;4957995;28;20621;-82
2022/10/22 01:26:53;;;;;;;22.58;11.90;;;;;;;14.09;100.00;100325.75;4928846;29;20055;-82
2022/10/22 01:29:26;;;;;;;17.08;12.60;;;;;;;14.04;100.00;100322.63;4957330;28;20309;-82
2022/10/22 01:31:58;;;;;;;17.20;12.98;;;;;;;14.00;100.00;100328.25;4941956;29;20534;-82
2022/10/22 01:34:27;;;;;;;15.13;11.63;;;;;;;13.95;100.00;100318.03;4959955;28;20039;-82
2022/10/22 01:36:55;;;;;;;16.92;12.40;;;;;;;13.94;100.00;100317.19;4937694;28;20051;-81
2022/10/22 01:39:24;;;;;;;16.40;12.10;;;;;;;13.93;100.00;100318.16;4913713;29;20051;-82
2022/10/22 01:41:55;;;;;;;15.18;13.02;;;;;;;13.88;100.00;100317.69;4932770;29;20095;-82
2022/10/22 01:44:28;;;;;;;14.95;11.18;;;;;;;13.84;100.00;100320.69;4946938;29;20058;-82
2022/10/22 01:47:21;;;;;;;15.90;12.55;;;;;;;13.86;100.00;100313.47;4943118;28;20058;-81
2022/10/22 01:50:08;;;;;;;13.15;10.85;;;;;;;13.91;100.00;100311.28;4922990;28;20050;-81
2022/10/22 01:53:21;;;;;;;13.45;10.70;;;;;;;13.87;100.00;100318.66;4941069;29;20043;-82
2022/10/22 01:56:13;;;;;;;14.00;10.43;;;;;;;13.87;100.00;100328.41;4939553;28;20486;-82
2022/10/22 01:58:43;;;;;;;13.43;10.88;;;;;;;13.87;100.00;100321.31;4958714;28;20043;-80
2022/10/22 02:01:20;;;;;;;16.33;11.23;;;;;;;13.87;100.00;100321.31;4929160;29;20111;-82
2022/10/22 02:04:09;;;;;;;12.98;10.27;;;;;;;13.88;100.00;100322.97;4924094;28;20059;-82
2022/10/22 02:06:38;;;;;;;14.57;11.65;;;;;;;13.88;100.00;100328.28;4941165;28;20301;-81
2022/10/22 02:09:06;;;;;;;14.38;11.38;;;;;;;13.90;100.00;100330.78;4940082;29;20047;-81
2022/10/22 02:11:34;;;;;;;17.58;10.23;;;;;;;13.84;100.00;100326.81;4927311;28;20415;-82
2022/10/22 02:14:03;;;;;;;13.80;11.32;;;;;;;13.86;100.00;100334.63;4937397;28;20062;-80
2022/10/22 02:16:41;;;;;;;15.75;11.63;;;;;;;13.86;100.00;100331.97;4958874;28;20051;-80
2022/10/22 02:19:26;;;;;;;17.48;12.85;;;;;;;13.81;100.00;100331.50;4939282;29;20056;-80
2022/10/22 02:21:53;;;;;;;13.27;11.57;;;;;;;13.76;100.00;100328.38;4951917;28;20039;-80
2022/10/22 02:24:21;;;;;;;14.65;10.38;;;;;;;13.79;100.00;100325.50;4940434;29;20047;-82
2022/10/22 02:27:20;;;;;;;15.30;11.88;;;;;;;13.79;100.00;100328.16;4937280;29;20043;-80
2022/10/22 02:30:13;;;;;;;13.57;10.57;;;;;;;13.78;100.00;100321.13;4939716;28;20057;-81
2022/10/22 02:32:48;;;;;;;11.23;9.38;;;;;;;13.78;100.00;100318.50;4923618;28;20055;-81
2022/10/22 02:35:21;;;;;;;13.68;11.38;;;;;;;13.77;100.00;100315.00;4937685;28;20094;-81
2022/10/22 02:37:49;;;;;;;14.90;11.82;;;;;;;13.74;100.00;100317.91;4916388;28;20039;-81
2022/10/22 02:40:17;;;;;;;13.18;10.68;;;;;;;13.74;100.00;100317.06;4934155;29;20055;-82
2022/10/22 02:42:47;;;;;;;13.43;9.93;;;;;;;13.77;100.00;100322.94;4931684;28;20084;-81
2022/10/22 02:45:15;;;;;;;15.57;11.95;;;;;;;13.79;100.00;100323.69;4941872;28;20655;-81
2022/10/22 02:47:42;;;;;;;17.70;10.88;;;;;;;13.73;100.00;100320.66;4942037;28;20063;-81
2022/10/22 02:50:10;;;;;;;18.02;11.93;;;;;;;13.70;100.00;100321.75;4948316;28;20141;-80
2022/10/22 02:52:37;;;;;;;14.23;10.60;;;;;;;13.72;100.00;100316.34;4934183;29;20047;-81
2022/10/22 02:55:06;;;;;;;16.90;12.00;;;;;;;13.73;100.00;100323.31;4947249;28;20059;-81
2022/10/22 02:57:34;;;;;;;16.52;12.95;;;;;;;13.74;100.00;100335.59;4949378;28;20055;-82
2022/10/22 03:00:01;;;;;;;19.58;12.70;;;;;;;13.71;100.00;100335.81;4940215;28;20077;-82
2022/10/22 03:02:29;;;;;;;14.77;11.70;;;;;;;13.68;100.00;100348.31;4921730;29;20044;-81
2022/10/22 03:04:57;;;;;;;19.30;11.90;;;;;;;13.73;100.00;100347.13;4912300;29;20509;-81
2022/10/22 03:07:24;;;;;;;15.25;11.40;;;;;;;13.75;100.00;100335.47;4947564;29;20047;-82
2022/10/22 03:09:52;;;;;;;17.55;12.35;;;;;;;13.73;100.00;100325.94;4938425;28;20461;-82
2022/10/22 03:12:19;;;;;;;13.18;11.07;;;;;;;13.70;100.00;100321.75;4964375;28;20039;-82
2022/10/22 03:14:47;;;;;;;15.10;11.55;;;;;;;13.68;100.00;100324.50;4917731;28;20083;-81
2022/10/22 03:17:14;;;;;;;16.50;12.77;;;;;;;13.67;100.00;100319.34;4951427;29;20059;-82
2022/10/22 03:19:42;;;;;;;14.60;11.07;;;;;;;13.66;100.00;100320.31;4938998;28;20069;-82
2022/10/22 03:22:17;;;;;;;14.30;10.95;;;;;;;13.70;100.00;100319.09;4968612;28;20050;-83
2022/10/22 03:24:47;;;;;;;14.55;10.75;;;;;;;13.72;100.00;100309.25;4939699;28;20134;-82
2022/10/22 03:27:17;;;;;;;12.77;10.32;;;;;;;13.72;100.00;100313.69;4937255;29;20055;-83
2022/10/22 03:29:45;;;;;;;10.50;8.70;;;;;;;13.73;100.00;100310.06;4960129;28;20066;-81
2022/10/22 03:32:13;;;;;;;14.07;11.60;;;;;;;13.72;100.00;100311.88;4932708;28;20070;-82
2022/10/22 03:34:40;;;;;;;17.58;11.95;;;;;;;13.69;100.00;100322.72;4930265;28;20047;-82
2022/10/22 03:37:12;;;;;;;15.20;12.27;;;;;;;13.65;100.00;100319.47;4959850;28;20043;-83
2022/10/22 03:39:39;;;;;;;12.07;9.88;;;;;;;13.62;100.00;100324.97;4942185;29;20055;-81
2022/10/22 03:42:07;;;;;;;13.75;11.63;;;;;;;13.60;100.00;100324.25;4926250;29;20569;-83
2022/10/22 03:44:36;;;;;;;11.50;9.60;;;;;;;13.60;100.00;100321.63;4957598;28;20082;-83
2022/10/22 03:47:04;;;;;;;12.90;9.05;;;;;;;13.61;100.00;100323.28;4939533;29;20430;-82
2022/10/22 03:49:31;;;;;;;15.43;10.93;;;;;;;13.65;100.00;100322.09;4933259;28;20097;-82
2022/10/22 03:52:10;;;;;;;14.32;11.18;;;;;;;13.65;100.00;100315.97;4928224;29;20043;-82
2022/10/22 03:54:38;;;;;;;12.45;10.73;;;;;;;13.61;100.00;100318.00;4913210;29;20090;-81
2022/10/22 03:57:06;;;;;;;14.73;10.68;;;;;;;13.60;100.00;100323.44;4927038;29;20097;-81
2022/10/22 03:59:38;;;;;;;11.98;10.30;;;;;;;13.59;100.00;100330.50;4923660;28;20106;-81
2022/10/22 04:02:06;;;;;;;10.35;9.25;;;;;;;13.63;100.00;100331.09;4958369;28;20074;-82
2022/10/22 04:04:34;;;;;;;12.10;9.90;;;;;;;13.66;100.00;100333.53;4943200;28;20095;-82
2022/10/22 04:07:03;;;;;;;13.18;10.35;;;;;;;13.69;100.00;100328.00;4926136;29;20043;-82
2022/10/22 04:09:32;;;;;;;10.45;9.30;;;;;;;13.67;100.00;100336.03;4960650;28;20056;-81
2022/10/22 04:12:00;;;;;;;15.88;11.45;;;;;;;13.68;100.00;100339.53;4944986;28;20047;-81
2022/10/22 04:14:28;;;;;;;14.07;10.15;;;;;;;13.65;100.00;100343.28;4941613;29;20047;-81
2022/10/22 04:16:56;;;;;;;12.93;8.68;;;;;;;13.66;100.00;100344.94;4956715;28;20035;-80
2022/10/22 04:19:23;;;;;;;14.10;10.10;;;;;;;13.65;100.00;100356.50;4927115;29;20058;-81
2022/10/22 04:21:51;;;;;;;13.50;9.68;;;;;;;13.65;100.00;100351.19;4954892;28;20023;-81
2022/10/22 04:24:18;;;;;;;12.73;10.30;;;;;;;13.66;100.00;100360.81;4940252;29;20727;-82
2022/10/22 04:26:46;;;;;;;14.35;11.63;;;;;;;13.61;100.00;100362.13;4954881;28;20055;-82
2022/10/22 04:29:13;;;;;;;12.23;9.93;;;;;;;13.52;100.00;100363.66;4935018;29;20403;-81
2022/10/22 04:31:42;;;;;;;13.50;10.90;;;;;;;13.49;100.00;100363.88;4954527;28;20047;-81
2022/10/22 04:34:10;;;;;;;12.63;10.88;;;;;;;13.48;100.00;100367.50;4942434;28;20047;-80
2022/10/22 04:36:37;;;;;;;14.43;11.50;;;;;;;13.50;100.00;100364.72;4929302;28;20047;-81
2022/10/22 04:39:05;;;;;;;16.27;10.93;;;;;;;13.49;100.00;100373.63;4942457;29;20430;-83
2022/10/22 04:41:35;;;;;;;15.98;10.82;;;;;;;13.47;100.00;100367.63;4956322;28;20098;-81
2022/10/22 04:44:03;;;;;;;13.38;10.77;;;;;;;13.48;100.00;100367.50;4951176;29;20115;-81
2022/10/22 04:46:33;;;;;;;12.00;10.38;;;;;;;13.46;100.00;100366.75;4932253;28;20066;-80
2022/10/22 04:49:02;;;;;;;17.55;10.63;;;;;;;13.45;100.00;100362.44;4972036;28;20047;-81
2022/10/22 04:51:31;;;;;;;12.02;9.23;;;;;;;13.49;100.00;100363.88;4943786;28;20085;-81
2022/10/22 04:53:58;;;;;;;16.50;10.40;;;;;;;13.49;100.00;100363.88;4932328;28;20055;-81
2022/10/22 04:56:28;;;;;;;13.00;9.68;;;;;;;13.47;100.00;100354.41;4945914;29;20055;-81
2022/10/22 04:59:00;;;;;;;14.30;11.00;;;;;;;13.44;100.00;100347.53;4932373;28;20051;-82
2022/10/22 05:01:36;;;;;;;11.38;9.32;;;;;;;13.45;100.00;100353.66;4930534;29;20058;-81
2022/10/22 05:04:14;;;;;;;11.05;9.80;;;;;;;13.47;100.00;100347.31;4920867;29;20051;-81
2022/10/22 05:06:42;;;;;;;12.95;10.50;;;;;;;13.53;100.00;100351.28;4935508;28;20082;-81
2022/10/22 05:09:16;;;;;;;13.65;9.52;;;;;;;13.54;100.00;100350.31;4945325;28;20039;-82
2022/10/22 05:11:47;;;;;;;14.23;9.88;;;;;;;13.55;100.00;100352.00;4961236;28;20044;-82
2022/10/22 05:14:17;;;;;;;14.05;9.70;;;;;;;13.56;100.00;100346.63;4923287;28;20067;-81
2022/10/22 05:16:46;;;;;;;14.32;9.55;;;;;;;13.58;100.00;100349.13;4924019;28;20052;-82
2022/10/22 05:19:25;;;;;;;10.07;8.32;;;;;;;13.55;100.00;100355.47;4944638;29;20402;-81
2022/10/22 05:21:55;;;;;;;12.50;11.02;;;;;;;13.50;100.00;100351.50;4924620;28;20454;-81
2022/10/22 05:24:24;;;;;;;11.50;9.25;;;;;;;13.45;100.00;100365.06;4921441;29;20051;-81
2022/10/22 05:26:53;;;;;;;13.68;9.85;;;;;;;13.40;100.00;100369.88;4963524;28;20050;-82
2022/10/22 05:29:21;;;;;;;12.20;9.77;;;;;;;13.36;100.00;100365.75;4944792;29;20051;-82
2022/10/22 05:31:49;;;;;;;10.75;9.18;;;;;;;13.35;100.00;100370.22;4942200;28;20166;-82
2022/10/22 05:34:16;;;;;;;11.75;9.00;;;;;;;13.37;100.00;100367.44;4927562;29;20071;-82
2022/10/22 05:36:44;;;;;;;17.33;11.45;;;;;;;13.41;100.00;100372.38;4947483;28;20043;-83
2022/10/22 05:39:11;;;;;;;11.88;8.65;;;;;;;13.41;100.00;100366.25;4916602;29;20538;-80
2022/10/22 05:41:39;;;;;;;13.93;10.02;;;;;;;13.43;100.00;100365.19;4950829;28;20066;-80
2022/10/22 05:44:06;;;;;;;14.60;10.50;;;;;;;13.42;100.00;100363.53;4963068;28;20055;-81
2022/10/22 05:46:35;;;;;;;11.68;9.85;;;;;;;13.38;100.00;100370.00;4947289;29;20043;-81
2022/10/22 05:49:05;;;;;;;16.50;11.95;;;;;;;13.40;100.00;100378.63;4965508;28;20031;-81
2022/10/22 05:51:34;;;;;;;11.45;10.18;;;;;;;13.36;100.00;100373.69;4969862;28;20083;-82
2022/10/22 05:54:04;;;;;;;15.70;10.63;;;;;;;13.33;100.00;100380.06;4953599;29;20055;-82
2022/10/22 05:56:32;;;;;;;13.40;9.52;;;;;;;13.32;100.00;100385.47;4946153;28;20054;-81
2022/10/22 05:59:00;;;;;;;11.85;10.00;;;;;;;13.33;100.00;100389.81;4954058;28;20047;-81
2022/10/22 06:01:36;;;;;;;13.25;10.98;;;;;;;13.32;100.00;100385.47;4955482;28;20051;-81
2022/10/22 06:04:06;;;;;;;14.85;10.32;;;;;;;13.32;100.00;100388.94;4954749;28;20048;-82
2022/10/22 06:06:37;;;;;;;15.35;9.77;;;;;;;13.35;100.00;100394.00;4925104;28;20051;-82
2022/10/22 06:09:28;;;;;;;14.25;9.95;;;;;;;13.40;100.00;100391.03;4944041;28;20055;-80
2022/10/22 06:11:56;;;;;;;14.68;9.57;;;;;;;13.45;100.00;100393.31;4938669;28;20060;-84
2022/10/22 06:14:24;;;;;;;22.05;10.00;;;;;;;13.46;100.00;100387.91;4930903;29;20047;-82
2022/10/22 06:16:52;;;;;;;11.43;10.23;;;;;;;13.46;100.00;100387.06;4945484;29;20059;-82
2022/10/22 06:19:21;;;;;;;12.60;9.77;;;;;;;13.46;100.00;100389.72;4963768;28;20059;-82
2022/10/22 06:21:49;;;;;;;13.20;10.70;;;;;;;13.45;100.00;100393.31;4918570;28;20122;-82
2022/10/22 06:24:17;;;;;;;14.15;10.10;;;;;;;13.43;100.00;100393.44;4944974;29;20052;-82
2022/10/22 06:26:48;;;;;;;14.27;10.90;;;;;;;13.41;100.00;100405.91;4953974;29;20139;-82
2022/10/22 06:29:16;;;;;;;11.75;9.98;;;;;;;13.35;100.00;100415.16;4962655;28;20051;-82
2022/10/22 06:31:44;;;;;;;15.98;10.90;;;;;;;13.31;100.00;100413.69;4953754;28;20573;-81
2022/10/22 06:34:12;;;;;;;14.13;11.32;;;;;;;13.29;100.00;100415.63;4943406;29;20055;-82
2022/10/22 06:36:41;;;;;;;12.77;10.43;;;;;;;13.28;100.00;100418.34;4908350;28;20470;-83
2022/10/22 06:39:13;;;;;;;11.40;10.30;;;;;;;13.28;100.00;100423.66;4954681;28;20043;-81
2022/10/22 06:41:41;;;;;;;13.80;10.73;;;;;;;13.29;100.00;100422.72;4936989;28;20067;-82
2022/10/22 06:44:13;;;;;;;19.75;13.13;;;;;;;13.28;100.00;100426.28;4945403;29;20040;-82
2022/10/22 06:46:41;;;;;;;16.17;10.98;;;;;;;13.29;100.00;100425.34;4951306;28;20059;-82
2022/10/22 06:49:14;;;;;;;15.07;12.43;;;;;;;13.27;100.00;100428.09;4948143;28;20053;-83
2022/10/22 06:51:41;;;;;;;14.82;12.10;;;;;;;13.26;100.00;100436.16;4941310;28;20066;-82
2022/10/22 06:54:09;;;;;;;16.35;12.65;;;;;;;13.27;100.00;100443.97;4960758;28;20563;-82
2022/10/22 06:56:40;;;;;;;15.30;12.23;;;;;;;13.25;100.00;100445.88;4929702;28;20041;-81
2022/10/22 06:59:07;;;;;;;15.02;11.40;;;;;;;13.28;100.00;100448.28;4929847;29;20051;-82
2022/10/22 07:01:35;;;;;;;14.45;11.25;;;;;;;13.34;100.00;100436.44;4943237;28;20047;-81
2022/10/22 07:04:04;;;;;;;16.95;12.15;;;;;;;13.40;100.00;100439.47;4961378;28;20031;-82
2022/10/22 07:06:32;;;;;;;14.70;11.30;;;;;;;13.44;100.00;100442.72;4945424;28;20123;-81
2022/10/22 07:09:00;;;;;;;16.85;12.77;;;;;;;13.48;100.00;100438.06;4947214;29;20062;-81
2022/10/22 07:11:29;;;;;;;15.43;12.13;;;;;;;13.53;100.00;100449.13;4960896;28;20062;-82
2022/10/22 07:13:58;;;;;;;16.20;12.32;;;;;;;13.53;100.00;100449.97;4951437;28;20047;-82
2022/10/22 07:16:26;;;;;;;15.40;12.10;;;;;;;13.55;100.00;100453.34;4939086;29;20050;-80
2022/10/22 07:19:02;;;;;;;14.73;11.73;;;;;;;13.55;100.00;100449.84;4925201;28;20106;-81
2022/10/22 07:21:30;;;;;;;16.27;12.20;;;;;;;13.55;100.00;100450.69;4914764;28;20051;-81
2022/10/22 07:23:58;;;;;;;16.42;12.45;;;;;;;13.56;100.00;100454.22;4946688;29;20047;-83
2022/10/22 07:26:29;;;;;;;18.00;13.63;;;;;;;13.46;100.00;100461.94;4913012;29;20047;-81
2022/10/22 07:29:00;;;;;;;17.23;13.07;;;;;;;13.38;100.00;100467.81;4931776;28;20067;-82
2022/10/22 07:31:28;;;;;;;16.20;12.07;;;;;;;13.36;100.00;100471.53;4911794;29;20059;-81
2022/10/22 07:33:56;;;;;;;15.63;12.55;;;;;;;13.31;100.00;100471.84;4946373;28;20051;-82
2022/10/22 07:36:24;;;;;;;15.45;12.20;;;;;;;13.34;100.00;100460.22;4934013;29;20086;-82
2022/10/22 07:38:57;;;;;;;17.17;11.48;;;;;;;13.39;100.00;100463.38;4948176;28;20042;-82
2022/10/22 07:41:26;;;;;;;16.52;12.90;;;;;;;13.44;100.00;100471.81;4928372;29;20063;-81
2022/10/22 07:43:55;;;;;;;14.40;10.93;;;;;;;13.44;100.00;100479.75;4938095;29;20078;-82
2022/10/22 07:46:24;;;;;;;13.13;10.70;;;;;;;13.50;100.00;100489.88;4940629;29;20057;-82
2022/10/22 07:48:51;;;;;;;15.85;12.90;;;;;;;13.54;100.00;100501.06;4964606;28;20180;-82
2022/10/22 07:51:19;;;;;;;18.98;13.43;;;;;;;13.60;100.00;100506.78;4929826;28;20059;-83
2022/10/22 07:53:46;;;;;;;18.73;13.52;;;;;;;13.61;100.00;100507.63;4927616;28;20047;-81
2022/10/22 07:56:14;;;;;;;20.08;13.70;;;;;;;13.61;100.00;100505.81;4949319;28;20036;-81
2022/10/22 07:58:42;;;;;;;16.13;12.43;;;;;;;13.62;100.00;100502.19;4944783;28;20135;-83
2022/10/22 08:01:09;;;;;;;20.20;13.23;;;;;;;13.66;100.00;100505.47;4958601;28;20098;-82
2022/10/22 08:03:37;;;;;;;13.95;11.35;;;;;;;13.66;100.00;100505.47;4931943;28;20031;-82
2022/10/22 08:06:05;;;;;;;14.90;13.13;;;;;;;13.68;100.00;100507.03;4942633;29;20110;-83
2022/10/22 08:08:33;;;;;;;15.73;11.65;;;;;;;13.65;100.00;100512.56;4930287;28;20051;-82
2022/10/22 08:11:01;;;;;;;16.27;12.77;;;;;;;13.63;100.00;100506.53;4936835;28;20041;-82
2022/10/22 08:13:29;;;;;;;19.23;12.98;;;;;;;13.64;100.00;100513.53;4950356;29;20061;-80
2022/10/22 08:16:00;;;;;;;18.70;14.85;;;;;;;13.64;100.00;100516.19;4938024;29;20052;-82
2022/10/22 08:18:33;;;;;;;14.88;11.88;;;;;;;13.67;100.00;100515.09;4942208;28;20047;-82
2022/10/22 08:21:04;;;;;;;16.08;13.00;;;;;;;13.72;100.00;100517.38;4961457;28;20039;-82
2022/10/22 08:23:31;;;;;;;15.82;13.63;;;;;;;13.70;100.00;100512.22;4951898;28;20043;-81
2022/10/22 08:25:59;;;;;;;16.10;13.02;;;;;;;13.74;100.00;100512.84;4925866;29;20071;-81
2022/10/22 08:28:28;;;;;;;16.27;11.43;;;;;;;13.78;100.00;100509.00;4954234;28;20052;-82
2022/10/22 08:30:56;;;;;;;15.65;12.50;;;;;;;13.82;100.00;100510.44;4926833;29;20098;-83
2022/10/22 08:33:23;;;;;;;16.05;12.10;;;;;;;13.84;100.00;100511.19;4944168;29;20067;-82
2022/10/22 08:35:51;;;;;;;17.20;14.05;;;;;;;13.85;100.00;100521.66;4943608;28;20061;-81
2022/10/22 08:38:19;;;;;;;16.63;12.73;;;;;;;13.84;100.00;100527.91;4951548;29;20043;-82
2022/10/22 08:40:51;;;;;;;16.05;13.20;;;;;;;13.85;100.00;100534.91;4953388;28;20062;-82
2022/10/22 08:43:56;;;;;;;18.08;11.57;;;;;;;13.86;100.00;100527.78;4932966;29;20086;-82
2022/10/22 08:46:27;;;;;;;21.55;13.02;;;;;;;13.96;100.00;100546.47;4944555;28;20063;-82
2022/10/22 08:48:59;;;;;;;16.92;13.30;;;;;;;13.99;100.00;100543.63;4957811;29;20051;-82
2022/10/22 08:51:31;;;;;;;18.40;13.65;;;;;;;14.02;100.00;100541.59;4953099;29;20054;-81
2022/10/22 08:54:14;;;;;;;15.75;12.65;;;;;;;14.03;100.00;100543.25;4920225;29;20074;-79
2022/10/22 08:57:01;;;;;;;20.42;12.27;;;;;;;14.07;100.00;100547.38;4944237;29;20134;-80
2022/10/22 08:59:56;;;;;;;19.83;13.02;;;;;;;14.10;100.00;100555.09;4952068;28;20055;-81
2022/10/22 09:02:24;;;;;;;17.77;13.52;;;;;;;14.13;100.00;100552.19;4947823;29;20043;-82
2022/10/22 09:05:01;;;;;;;17.98;13.80;;;;;;;14.14;100.00;100551.28;4945218;29;20122;-82
2022/10/22 09:07:29;;;;;;;18.05;13.18;;;;;;;14.17;100.00;100553.66;4941637;29;20438;-82
2022/10/22 09:09:58;;;;;;;16.98;12.55;;;;;;;14.27;100.00;100552.97;4938918;29;20478;-82
2022/10/22 09:12:26;;;;;;;16.40;12.85;;;;;;;14.27;100.00;100559.09;4941049;28;20063;-82
2022/10/22 09:14:54;;;;;;;14.50;10.75;;;;;;;14.28;100.00;100554.69;4925328;29;20565;-82
2022/10/22 09:17:38;;;;;;;16.48;12.77;;;;;;;14.31;100.00;100549.97;4958512;28;20059;-82
2022/10/22 09:20:16;;;;;;;13.80;10.90;;;;;;;14.33;100.00;100555.19;4939839;29;20051;-82
2022/10/22 09:23:10;;;;;;;12.38;10.77;;;;;;;14.40;100.00;100556.38;4929925;28;20059;-81
2022/10/22 09:25:38;;;;;;;17.42;11.95;;;;;;;14.42;100.00;100562.41;4946569;28;20075;-80
2022/10/22 09:28:08;;;;;;;14.80;11.82;;;;;;;14.46;100.00;100558.59;4944069;29;20043;-81
2022/10/22 09:30:37;;;;;;;16.20;12.02;;;;;;;14.50;100.00;100556.56;4952795;28;20051;-80
2022/10/22 09:33:04;;;;;;;15.07;11.23;;;;;;;14.56;100.00;100558.75;4934416;29;20051;-81
2022/10/22 09:35:35;;;;;;;16.83;11.93;;;;;;;14.63;100.00;100559.94;4950444;28;20137;-81
2022/10/22 09:38:07;;;;;;;15.70;11.43;;;;;;;14.68;100.00;100560.47;4959265;28;20056;-81
2022/10/22 09:40:50;;;;;;;16.75;12.13;;;;;;;14.66;100.00;100573.81;4928517;29;20119;-81
2022/10/22 09:43:18;;;;;;;18.20;12.57;;;;;;;14.63;100.00;100571.41;4937675;28;20114;-81
2022/10/22 09:45:46;;;;;;;16.70;12.50;;;;;;;14.63;100.00;100578.50;4973447;28;20058;-80
2022/10/22 09:48:14;;;;;;;16.38;12.45;;;;;;;14.62;100.00;100579.47;4955944;28;20110;-80
2022/10/22 09:50:47;;;;;;;16.20;12.05;;;;;;;14.66;100.00;100581.75;4964385;28;20053;-81
2022/10/22 09:53:35;;;;;;;14.35;12.07;;;;;;;14.68;100.00;100585.16;4928892;29;20461;-81
2022/10/22 09:56:09;;;;;;;18.65;11.80;;;;;;;14.73;100.00;100578.66;4904468;28;20051;-81
2022/10/22 09:58:48;;;;;;;16.25;12.15;;;;;;;14.79;100.00;100583.47;4955140;28;20047;-81
2022/10/22 10:01:27;;;;;;;17.25;11.65;;;;;;;14.85;100.00;100586.47;4942712;29;20153;-82
2022/10/22 10:04:05;;;;;;;12.65;11.35;;;;;;;14.91;100.00;100582.53;4928490;29;20094;-81
2022/10/22 10:06:54;;;;;;;17.52;11.90;;;;;;;14.95;100.00;100584.00;4950556;28;20051;-81
2022/10/22 10:09:25;;;;;;;14.88;11.50;;;;;;;14.97;100.00;100587.34;4947394;28;20371;-81
2022/10/22 10:11:59;;;;;;;17.83;11.88;;;;;;;14.94;100.00;100587.56;4946322;28;20066;-82
2022/10/22 10:14:27;;;;;;;21.58;13.77;;;;;;;14.91;100.00;100586.03;4940428;29;20048;-81
2022/10/22 10:17:10;;;;;;;16.40;11.55;;;;;;;14.93;100.00;100580.59;4933700;28;20055;-79
2022/10/22 10:20:06;;;;;;;19.95;12.65;;;;;;;14.92;100.00;100586.88;4959652;28;20114;-82
2022/10/22 10:22:47;;;;;;;19.27;11.77;;;;;;;14.91;100.00;100585.19;4960653;28;20048;-81
2022/10/22 10:25:36;;;;;;;18.35;12.88;;;;;;;14.89;100.00;100590.59;4948250;28;20042;-82
2022/10/22 10:28:14;;;;;;;17.42;11.90;;;;;;;14.89;100.00;100589.75;4947721;29;20423;-81
2022/10/22 10:30:56;;;;;;;19.35;12.07;;;;;;;14.90;100.00;100586.13;4943429;28;20047;-82
2022/10/22 10:33:42;;;;;;;18.30;13.20;;;;;;;15.01;100.00;100586.16;4947610;29;20101;-82
2022/10/22 10:36:18;;;;;;;19.50;12.82;;;;;;;15.00;100.00;100589.78;4942792;29;20146;-82
2022/10/22 10:39:06;;;;;;;23.25;12.43;;;;;;;14.97;100.00;100587.34;4960242;28;20055;-81
2022/10/22 10:41:50;;;;;;;21.08;14.43;;;;;;;15.01;100.00;100587.97;4931460;28;20047;-81
2022/10/22 10:44:25;;;;;;;18.08;12.63;;;;;;;15.06;100.00;100583.97;4953787;29;20098;-82
2022/10/22 10:47:08;;;;;;;18.67;14.02;;;;;;;15.11;100.00;100584.47;4917230;28;20062;-82
2022/10/22 10:49:36;;;;;;;17.00;12.80;;;;;;;15.16;100.00;100578.78;4962179;28;20134;-80
2022/10/22 10:52:09;;;;;;;18.65;13.35;;;;;;;15.15;100.00;100585.91;4935655;29;20139;-79
2022/10/22 10:54:54;;;;;;;17.25;13.85;;;;;;;15.13;100.00;100577.25;4971758;28;20086;-81
2022/10/22 10:57:36;;;;;;;17.02;13.10;;;;;;;15.13;100.00;100582.53;4916804;29;20090;-81
2022/10/22 11:00:09;;;;;;;18.27;13.90;;;;;;;15.19;100.00;100587.34;4965682;28;20111;-81
2022/10/22 11:03:13;;;;;;;17.70;13.70;;;;;;;15.30;100.00;100593.63;4926904;28;20122;-80
2022/10/22 11:06:02;;;;;;;17.90;12.43;;;;;;;15.40;100.00;100592.78;4964597;28;20039;-82
2022/10/22 11:08:37;;;;;;;19.08;12.77;;;;;;;15.51;100.00;100599.88;4952481;29;20475;-80
2022/10/22 11:11:17;;;;;;;16.40;13.55;;;;;;;15.60;100.00;100598.28;4978930;28;20094;-81
2022/10/22 11:13:50;;;;;;;21.08;14.45;;;;;;;15.62;100.00;100591.03;4948988;28;20064;-82
2022/10/22 11:16:35;;;;;;;21.35;14.95;;;;;;;15.67;100.00;100584.44;4950316;29;20046;-82
2022/10/22 11:19:13;;;;;;;18.20;12.80;;;;;;;15.78;100.00;100588.03;4950316;29;20047;-80
2022/10/22 11:22:13;;;;;;;20.65;15.18;;;;;;;15.95;100.00;100588.34;4939713;28;20093;-81
2022/10/22 11:24:56;;;;;;;23.58;16.77;;;;;;;16.07;100.00;100588.28;4941907;29;20046;-81
2022/10/22 11:28:01;;;;;;;23.17;14.68;;;;;;;16.16;100.00;100588.38;4966711;28;20105;-80